Time;durP1;ratioP1;P1;durP2;ratioP2;P2;SDS_P1;SDS_P2;PMS_P1;PMS_P2;Temp;Humidity;BMP_temperature;BMP_pressure;BME280_temperature;BME280_humidity;BME280_pressure;Samples;Min_cycle;Max_cycle;Signal;HPM_P1;HPM_P2
2024/02/28 00:00:33;;;;;;;25.07;20.83;;;4.80;99.90;;;;;;5033249;28;20467;-59
2024/02/28 00:03:01;;;;;;;26.87;19.20;;;4.70;99.90;;;;;;5032665;28;20467;-58
2024/02/28 00:05:30;;;;;;;27.23;19.43;;;4.70;99.90;;;;;;5032582;28;21801;-59
2024/02/28 00:07:58;;;;;;;27.40;20.47;;;4.60;99.90;;;;;;5035829;28;20512;-59
2024/02/28 00:10:26;;;;;;;27.93;19.33;;;4.60;99.90;;;;;;5032401;28;21048;-59
2024/02/28 00:12:54;;;;;;;27.23;21.37;;;4.60;99.90;;;;;;5032530;28;20497;-60
2024/02/28 00:15:22;;;;;;;28.40;21.30;;;4.60;99.90;;;;;;5033191;28;20470;-60
2024/02/28 00:17:53;;;;;;;27.13;21.20;;;4.70;99.90;;;;;;5033408;28;20487;-58
2024/02/28 00:20:21;;;;;;;28.70;21.20;;;4.70;99.90;;;;;;5034498;28;20478;-59
2024/02/28 00:22:50;;;;;;;26.77;20.27;;;4.60;99.90;;;;;;5037463;28;21014;-59
2024/02/28 00:25:19;;;;;;;29.43;20.87;;;4.70;99.90;;;;;;5034497;28;20612;-59
2024/02/28 00:27:46;;;;;;;29.37;22.00;;;4.70;99.90;;;;;;5035188;28;20503;-59
2024/02/28 00:30:15;;;;;;;31.17;22.60;;;4.60;99.90;;;;;;5032625;28;20470;-59
2024/02/28 00:32:42;;;;;;;31.90;21.50;;;4.60;99.90;;;;;;5035302;28;20496;-59
2024/02/28 00:35:10;;;;;;;29.50;21.13;;;4.50;99.90;;;;;;5032266;28;21033;-59
2024/02/28 00:37:38;;;;;;;30.80;21.60;;;4.60;99.90;;;;;;5033730;28;20934;-59
2024/02/28 00:40:11;;;;;;;31.50;21.53;;;4.60;99.90;;;;;;5030515;28;20577;-59
2024/02/28 00:42:39;;;;;;;28.93;19.87;;;4.60;99.90;;;;;;5037676;28;20467;-57
2024/02/28 00:45:10;;;;;;;30.20;21.20;;;4.60;99.90;;;;;;5033864;28;20475;-59
2024/02/28 00:47:40;;;;;;;30.37;21.20;;;4.60;99.90;;;;;;5035588;28;20962;-59
2024/02/28 00:50:08;;;;;;;29.50;20.30;;;4.70;99.90;;;;;;5032181;28;20506;-59
2024/02/28 00:52:36;;;;;;;31.17;20.57;;;4.60;99.90;;;;;;5033172;28;20584;-59
2024/02/28 00:55:05;;;;;;;30.80;21.10;;;4.60;99.90;;;;;;5033302;28;20463;-58
2024/02/28 00:57:35;;;;;;;29.17;20.60;;;4.60;99.90;;;;;;5037328;28;20481;-59
2024/02/28 01:00:05;;;;;;;29.60;20.10;;;4.60;99.90;;;;;;5036877;28;20471;-59
2024/02/28 01:02:33;;;;;;;31.17;21.93;;;4.60;99.90;;;;;;5038239;28;20462;-59
2024/02/28 01:05:01;;;;;;;31.93;21.50;;;4.60;99.90;;;;;;5037581;28;20466;-58
2024/02/28 01:07:29;;;;;;;30.73;20.30;;;4.60;99.90;;;;;;5035740;28;20504;-58
2024/02/28 01:09:57;;;;;;;32.77;22.17;;;4.60;99.90;;;;;;5031872;28;20978;-59
2024/02/28 01:12:25;;;;;;;29.90;20.57;;;4.60;99.90;;;;;;5037187;28;20613;-59
2024/02/28 01:14:54;;;;;;;29.90;19.93;;;4.60;99.90;;;;;;5039810;28;20470;-58
2024/02/28 01:17:22;;;;;;;29.93;20.70;;;4.60;99.90;;;;;;5036716;28;20491;-59
2024/02/28 01:19:50;;;;;;;34.07;21.47;;;4.60;99.90;;;;;;5036394;28;20914;-59
2024/02/28 01:22:18;;;;;;;29.83;19.80;;;4.60;99.90;;;;;;5038719;28;20932;-59
2024/02/28 01:24:46;;;;;;;31.60;20.30;;;4.60;99.90;;;;;;5038558;28;20952;-59
2024/02/28 01:27:14;;;;;;;33.63;22.23;;;4.50;99.90;;;;;;5035242;28;20574;-59
2024/02/28 01:29:42;;;;;;;30.20;20.83;;;4.50;99.90;;;;;;5037495;28;20501;-59
2024/02/28 01:32:12;;;;;;;30.70;19.97;;;4.50;99.90;;;;;;5037278;28;20963;-59
2024/02/28 01:34:40;;;;;;;28.63;20.33;;;4.50;99.90;;;;;;5035920;28;20578;-59
2024/02/28 01:37:08;;;;;;;30.70;20.07;;;4.50;99.90;;;;;;5035668;28;20514;-59
2024/02/28 01:39:36;;;;;;;31.30;20.23;;;4.50;99.90;;;;;;5036924;28;20495;-59
2024/02/28 01:42:04;;;;;;;29.20;20.30;;;4.50;99.90;;;;;;5037285;28;20471;-59
2024/02/28 01:44:38;;;;;;;30.63;20.70;;;4.50;99.90;;;;;;5036007;28;20551;-59
2024/02/28 01:47:06;;;;;;;27.27;18.97;;;4.50;99.90;;;;;;5033491;28;20933;-58
2024/02/28 01:49:36;;;;;;;28.80;20.63;;;4.50;99.90;;;;;;5036387;28;20549;-58
2024/02/28 01:52:05;;;;;;;27.80;19.47;;;4.50;99.90;;;;;;5033329;28;20482;-59
2024/02/28 01:54:35;;;;;;;28.10;19.20;;;4.50;99.90;;;;;;5035446;28;20502;-59
2024/02/28 01:57:04;;;;;;;27.40;19.10;;;4.50;99.90;;;;;;5033506;28;20592;-59
2024/02/28 01:59:33;;;;;;;27.70;18.67;;;4.40;99.90;;;;;;5032739;28;20518;-59
2024/02/28 02:02:01;;;;;;;29.90;19.57;;;4.40;99.90;;;;;;5035857;28;20963;-59
2024/02/28 02:04:29;;;;;;;30.53;20.43;;;4.40;99.90;;;;;;5032604;28;20547;-58
2024/02/28 02:06:59;;;;;;;30.63;20.30;;;4.40;99.90;;;;;;5035026;28;20486;-59
2024/02/28 02:09:27;;;;;;;27.23;19.07;;;4.40;99.90;;;;;;5035187;28;20552;-59
2024/02/28 02:11:56;;;;;;;27.97;18.77;;;4.40;99.90;;;;;;5037456;28;20474;-59
2024/02/28 02:14:23;;;;;;;26.50;18.80;;;4.40;99.90;;;;;;5032524;28;20519;-59
2024/02/28 02:16:51;;;;;;;26.07;17.30;;;4.40;99.90;;;;;;5034125;28;20574;-59
2024/02/28 02:19:20;;;;;;;29.67;19.70;;;4.30;99.90;;;;;;5033952;28;20513;-59
2024/02/28 02:21:53;;;;;;;26.80;18.43;;;4.30;99.90;;;;;;5036545;28;20466;-58
2024/02/28 02:24:22;;;;;;;25.40;17.13;;;4.30;99.90;;;;;;5037157;28;20990;-58
2024/02/28 02:26:52;;;;;;;25.83;17.30;;;4.30;99.90;;;;;;5032869;28;20495;-59
2024/02/28 02:29:20;;;;;;;24.70;16.33;;;4.30;99.90;;;;;;5033682;28;20578;-59
2024/02/28 02:31:48;;;;;;;26.53;16.30;;;4.30;99.90;;;;;;5033375;28;20473;-59
2024/02/28 02:34:15;;;;;;;26.30;17.40;;;4.20;99.90;;;;;;5037161;28;20541;-59
2024/02/28 02:36:43;;;;;;;24.57;16.63;;;4.20;99.90;;;;;;5036511;28;20544;-59
2024/02/28 02:39:11;;;;;;;28.20;17.47;;;4.10;99.90;;;;;;5033844;28;20932;-59
2024/02/28 02:41:41;;;;;;;23.50;16.10;;;4.00;99.90;;;;;;5038046;28;22231;-59
2024/02/28 02:44:09;;;;;;;27.63;17.30;;;4.00;99.90;;;;;;5036755;28;20968;-59
2024/02/28 02:46:39;;;;;;;24.77;15.67;;;3.90;99.90;;;;;;5036519;28;20578;-59
2024/02/28 02:49:07;;;;;;;26.03;16.33;;;4.00;99.90;;;;;;5034176;28;20490;-59
2024/02/28 02:51:35;;;;;;;27.57;16.83;;;4.00;99.90;;;;;;5037000;28;20553;-59
2024/02/28 02:54:03;;;;;;;23.70;16.10;;;4.00;99.90;;;;;;5033589;28;20491;-59
2024/02/28 02:56:31;;;;;;;26.43;17.20;;;4.00;99.90;;;;;;5034399;28;20494;-59
2024/02/28 02:59:00;;;;;;;27.30;17.43;;;4.00;99.90;;;;;;5034848;28;21045;-58
2024/02/28 03:01:28;;;;;;;24.13;15.90;;;4.00;99.90;;;;;;5036868;28;21011;-59
2024/02/28 03:03:56;;;;;;;22.97;15.40;;;3.90;99.90;;;;;;5032203;28;20842;-59
2024/02/28 03:06:24;;;;;;;26.83;17.10;;;3.90;99.90;;;;;;5036392;28;20497;-59
2024/02/28 03:08:52;;;;;;;21.10;14.93;;;3.90;99.90;;;;;;5037486;28;20906;-59
2024/02/28 03:11:20;;;;;;;21.67;15.53;;;3.90;99.90;;;;;;5034013;28;20466;-60
2024/02/28 03:13:48;;;;;;;23.30;15.70;;;3.80;99.90;;;;;;5036586;28;20491;-59
2024/02/28 03:16:18;;;;;;;22.80;14.80;;;3.80;99.90;;;;;;5034165;28;20487;-59
2024/02/28 03:18:46;;;;;;;24.37;15.07;;;3.80;99.90;;;;;;5038032;28;20577;-59
2024/02/28 03:21:14;;;;;;;22.23;14.87;;;3.80;99.90;;;;;;5032846;28;21040;-59
2024/02/28 03:23:42;;;;;;;23.80;14.70;;;3.80;99.90;;;;;;5034052;28;20599;-59
2024/02/28 03:26:10;;;;;;;23.47;14.90;;;3.80;99.90;;;;;;5035033;28;20491;-59
2024/02/28 03:28:38;;;;;;;22.43;15.07;;;3.90;99.90;;;;;;5036008;28;20587;-59
2024/02/28 03:31:06;;;;;;;22.27;14.87;;;3.90;99.90;;;;;;5034238;28;20988;-59
2024/02/28 03:33:35;;;;;;;21.93;14.77;;;3.90;99.90;;;;;;5030184;28;20486;-59
2024/02/28 03:36:04;;;;;;;20.00;14.30;;;3.90;99.90;;;;;;5032506;28;20531;-58
2024/02/28 03:38:31;;;;;;;24.23;16.10;;;3.80;99.90;;;;;;5033548;28;20876;-59
2024/02/28 03:40:59;;;;;;;23.83;16.07;;;3.80;99.90;;;;;;5032446;28;20919;-57
2024/02/28 03:43:27;;;;;;;24.63;14.93;;;3.80;99.90;;;;;;5027353;28;20476;-59
2024/02/28 03:45:55;;;;;;;23.20;14.57;;;3.80;99.90;;;;;;5032327;28;20488;-59
2024/02/28 03:48:23;;;;;;;21.80;14.30;;;3.80;99.90;;;;;;5032002;28;20506;-58
2024/02/28 03:50:53;;;;;;;22.40;14.83;;;3.80;99.90;;;;;;5033545;28;20497;-59
2024/02/28 03:53:21;;;;;;;22.70;14.43;;;3.80;99.90;;;;;;5031968;28;20485;-58
2024/02/28 03:55:49;;;;;;;21.60;14.20;;;3.80;99.90;;;;;;5035105;28;20481;-59
2024/02/28 03:58:17;;;;;;;20.97;13.93;;;3.80;99.90;;;;;;5035395;28;20482;-59
2024/02/28 04:00:44;;;;;;;21.80;13.90;;;3.90;99.90;;;;;;5036155;28;21167;-59
2024/02/28 04:03:13;;;;;;;24.10;15.10;;;3.90;99.90;;;;;;5028424;28;20471;-58
2024/02/28 04:05:41;;;;;;;22.00;14.20;;;3.90;99.90;;;;;;5035607;28;20916;-59
2024/02/28 04:08:11;;;;;;;22.60;13.40;;;3.90;99.90;;;;;;5035138;28;20568;-58
2024/02/28 04:10:39;;;;;;;22.53;14.33;;;3.90;99.90;;;;;;5035458;28;20494;-59
2024/02/28 04:13:07;;;;;;;24.17;14.87;;;3.90;99.90;;;;;;5033737;28;20829;-59
2024/02/28 04:15:35;;;;;;;20.53;13.90;;;3.90;99.90;;;;;;5035517;28;20556;-58
2024/02/28 04:18:03;;;;;;;22.87;15.27;;;3.90;99.90;;;;;;5034297;28;20505;-59
2024/02/28 04:20:31;;;;;;;21.30;14.13;;;3.80;99.90;;;;;;5035528;28;20551;-59
2024/02/28 04:22:59;;;;;;;22.33;15.30;;;3.80;99.90;;;;;;5033321;28;20503;-59
2024/02/28 04:25:28;;;;;;;23.33;15.23;;;3.80;99.90;;;;;;5030786;28;21420;-59
2024/02/28 04:27:57;;;;;;;24.47;15.80;;;3.80;99.90;;;;;;5033986;28;21029;-58
2024/02/28 04:30:25;;;;;;;25.27;15.53;;;3.80;99.90;;;;;;5039296;28;20462;-59
2024/02/28 04:32:53;;;;;;;26.00;16.07;;;3.90;99.90;;;;;;5039596;28;20489;-59
2024/02/28 04:35:21;;;;;;;22.50;14.87;;;3.80;99.90;;;;;;5039813;28;20587;-59
2024/02/28 04:37:49;;;;;;;25.27;16.77;;;3.90;99.90;;;;;;5039213;28;21113;-58
2024/02/28 04:40:17;;;;;;;21.47;14.33;;;3.90;99.90;;;;;;5039791;28;20589;-58
2024/02/28 04:42:47;;;;;;;21.73;14.50;;;3.90;99.90;;;;;;5037578;28;20563;-58
2024/02/28 04:45:15;;;;;;;21.27;13.67;;;3.90;99.90;;;;;;5036390;28;20486;-57
2024/02/28 04:47:43;;;;;;;24.40;16.63;;;3.90;99.90;;;;;;5038262;28;20471;-58
2024/02/28 04:50:12;;;;;;;22.47;14.30;;;3.90;99.90;;;;;;5036826;28;20999;-58
2024/02/28 04:52:40;;;;;;;26.67;16.20;;;3.90;99.90;;;;;;5038066;28;20474;-58
2024/02/28 04:55:09;;;;;;;24.43;15.40;;;3.90;99.90;;;;;;5035843;28;20597;-59
2024/02/28 04:57:37;;;;;;;23.33;14.53;;;3.90;99.90;;;;;;5035900;28;20474;-58
2024/02/28 05:00:08;;;;;;;25.70;16.17;;;3.90;99.90;;;;;;5038029;28;20959;-58
2024/02/28 05:02:36;;;;;;;25.37;15.50;;;3.90;99.90;;;;;;5033489;28;20501;-57
2024/02/28 05:05:05;;;;;;;23.43;15.53;;;4.00;99.90;;;;;;5038702;28;20470;-56
2024/02/28 05:07:33;;;;;;;25.90;16.23;;;4.00;99.90;;;;;;5035645;28;20827;-58
2024/02/28 05:10:00;;;;;;;25.20;15.77;;;4.00;99.90;;;;;;5039860;28;20576;-59
2024/02/28 05:12:28;;;;;;;25.53;15.87;;;4.00;99.90;;;;;;5036536;28;20995;-59
2024/02/28 05:14:56;;;;;;;25.00;16.13;;;4.00;99.90;;;;;;5037629;28;20707;-59
2024/02/28 05:17:27;;;;;;;24.60;16.20;;;4.00;99.90;;;;;;5035411;28;21231;-59
2024/02/28 05:19:56;;;;;;;23.57;15.30;;;4.00;99.90;;;;;;5036693;28;20474;-58
2024/02/28 05:22:25;;;;;;;24.47;15.43;;;4.00;99.90;;;;;;5038911;28;20470;-59
2024/02/28 05:24:53;;;;;;;24.43;15.60;;;4.00;99.90;;;;;;5033273;28;21390;-59
2024/02/28 05:27:21;;;;;;;22.97;15.13;;;4.00;99.90;;;;;;5033787;28;20490;-58
2024/02/28 05:29:49;;;;;;;25.07;16.57;;;4.00;99.90;;;;;;5034587;28;20494;-57
2024/02/28 05:32:18;;;;;;;27.37;17.87;;;4.10;99.90;;;;;;5034038;28;20467;-58
2024/02/28 05:34:48;;;;;;;26.70;16.77;;;4.10;99.90;;;;;;5035411;28;20566;-58
2024/02/28 05:37:18;;;;;;;24.50;15.80;;;4.10;99.90;;;;;;5030337;28;20931;-58
2024/02/28 05:39:45;;;;;;;26.70;15.90;;;4.10;99.90;;;;;;5034207;28;20498;-59
2024/02/28 05:42:17;;;;;;;24.70;16.40;;;4.10;99.90;;;;;;5034369;28;20572;-59
2024/02/28 05:44:45;;;;;;;25.23;16.50;;;4.10;99.90;;;;;;5035197;28;20493;-59
2024/02/28 05:47:13;;;;;;;24.70;15.90;;;4.10;99.90;;;;;;5033483;28;20504;-58
2024/02/28 05:49:41;;;;;;;28.07;17.17;;;4.10;99.90;;;;;;5034436;28;20495;-59
2024/02/28 05:52:11;;;;;;;24.70;15.20;;;4.10;99.90;;;;;;5027431;28;20649;-59
2024/02/28 05:54:39;;;;;;;28.27;17.37;;;4.10;99.90;;;;;;5036643;28;20471;-59
2024/02/28 05:57:07;;;;;;;26.97;16.90;;;4.10;99.90;;;;;;5035123;28;20486;-59
2024/02/28 05:59:35;;;;;;;25.37;17.53;;;4.10;99.90;;;;;;5032213;28;20511;-59
2024/02/28 06:02:03;;;;;;;29.23;17.33;;;4.10;99.90;;;;;;5031018;28;20480;-59
2024/02/28 06:04:31;;;;;;;27.10;17.00;;;4.00;99.90;;;;;;5033403;28;20474;-59
2024/02/28 06:06:59;;;;;;;25.67;16.77;;;4.00;99.90;;;;;;5033447;28;20488;-60
2024/02/28 06:09:29;;;;;;;25.00;16.87;;;4.00;99.90;;;;;;5026519;28;20501;-60
2024/02/28 06:11:57;;;;;;;28.07;17.00;;;4.00;99.90;;;;;;5030832;28;20470;-58
2024/02/28 06:14:27;;;;;;;27.93;17.77;;;4.00;99.90;;;;;;5035080;28;20495;-60
2024/02/28 06:16:55;;;;;;;27.47;18.70;;;4.00;99.90;;;;;;5029903;28;21019;-61
2024/02/28 06:19:23;;;;;;;24.37;15.93;;;4.10;99.90;;;;;;5036015;28;20518;-59
2024/02/28 06:21:51;;;;;;;26.60;17.50;;;4.10;99.90;;;;;;5033724;28;20478;-58
2024/02/28 06:24:19;;;;;;;23.57;16.20;;;4.00;99.90;;;;;;5037759;28;20550;-58
2024/02/28 06:26:49;;;;;;;28.17;18.30;;;4.10;99.90;;;;;;5037912;28;20496;-61
2024/02/28 06:29:17;;;;;;;27.27;17.43;;;4.00;99.90;;;;;;5032323;28;20600;-59
2024/02/28 06:31:45;;;;;;;26.47;16.50;;;4.00;99.90;;;;;;5033144;28;21753;-59
2024/02/28 06:34:14;;;;;;;24.27;16.30;;;4.10;99.90;;;;;;5032787;28;20477;-58
2024/02/28 06:36:42;;;;;;;25.03;16.23;;;4.10;99.90;;;;;;5033765;28;20523;-59
2024/02/28 06:39:10;;;;;;;24.37;16.53;;;4.10;99.90;;;;;;5030246;28;20498;-59
2024/02/28 06:41:38;;;;;;;21.90;15.70;;;4.10;99.90;;;;;;5038641;28;21066;-58
2024/02/28 06:44:08;;;;;;;22.07;15.90;;;4.10;99.90;;;;;;5037722;28;20514;-60
2024/02/28 06:46:36;;;;;;;24.40;15.50;;;4.10;99.90;;;;;;5036281;28;21159;-59
2024/02/28 06:49:04;;;;;;;20.77;14.83;;;4.10;99.90;;;;;;5036243;28;20573;-59
2024/02/28 06:51:32;;;;;;;20.20;15.07;;;4.10;99.90;;;;;;5033567;28;20471;-58
2024/02/28 06:54:00;;;;;;;20.60;14.47;;;4.10;99.90;;;;;;5035852;28;21059;-59
2024/02/28 06:56:28;;;;;;;21.63;14.70;;;4.10;99.90;;;;;;5037924;28;20854;-59
2024/02/28 06:58:56;;;;;;;21.30;15.23;;;4.10;99.90;;;;;;5033435;28;20996;-59
2024/02/28 07:01:25;;;;;;;19.60;13.33;;;4.10;99.90;;;;;;5037503;28;20566;-59
2024/02/28 07:03:53;;;;;;;18.57;12.50;;;4.10;99.90;;;;;;5034737;28;20467;-59
2024/02/28 07:06:21;;;;;;;22.07;14.30;;;4.10;99.90;;;;;;5035680;28;20478;-59
2024/02/28 07:08:49;;;;;;;18.57;13.80;;;4.10;99.90;;;;;;5035318;28;20501;-59
2024/02/28 07:11:17;;;;;;;18.27;13.60;;;4.10;99.90;;;;;;5036930;28;20565;-59
2024/02/28 07:13:45;;;;;;;20.47;14.23;;;4.20;99.90;;;;;;5035931;28;20478;-59
2024/02/28 07:16:13;;;;;;;17.97;14.07;;;4.20;99.90;;;;;;5032589;28;20914;-59
2024/02/28 07:18:42;;;;;;;20.27;12.90;;;4.20;99.90;;;;;;5034708;28;20489;-59
2024/02/28 07:21:10;;;;;;;19.40;13.90;;;4.20;99.90;;;;;;5038211;28;20824;-58
2024/02/28 07:23:40;;;;;;;18.80;14.63;;;4.20;99.90;;;;;;5036753;28;20521;-59
2024/02/28 07:26:08;;;;;;;16.67;12.50;;;4.30;99.90;;;;;;5037665;28;20482;-59
2024/02/28 07:28:50;;;;;;;18.73;12.73;;;4.30;99.90;;;;;;5036142;28;21019;-60
2024/02/28 07:31:18;;;;;;;18.77;13.33;;;4.30;99.90;;;;;;5032639;28;20474;-59
2024/02/28 07:33:48;;;;;;;20.33;12.87;;;4.30;99.90;;;;;;5034109;28;20561;-59
2024/02/28 07:36:16;;;;;;;17.10;12.80;;;4.30;99.90;;;;;;5035939;28;20515;-59
2024/02/28 07:38:44;;;;;;;18.87;13.87;;;4.30;99.90;;;;;;5031672;28;20501;-58
2024/02/28 07:41:12;;;;;;;18.50;13.90;;;4.30;99.90;;;;;;5033239;28;21101;-58
2024/02/28 07:43:43;;;;;;;18.57;13.13;;;4.40;99.90;;;;;;5033389;28;20471;-58
2024/02/28 07:46:11;;;;;;;19.40;13.30;;;4.40;99.90;;;;;;5032954;28;20494;-58
2024/02/28 07:48:40;;;;;;;16.97;12.90;;;4.40;99.90;;;;;;5036269;28;20487;-58
2024/02/28 07:51:11;;;;;;;18.23;13.47;;;4.30;99.90;;;;;;5034752;28;20475;-59
2024/02/28 07:53:39;;;;;;;19.17;14.77;;;4.30;99.90;;;;;;5034253;28;20757;-56
2024/02/28 07:56:07;;;;;;;20.30;14.70;;;4.30;99.90;;;;;;5032449;28;20589;-58
2024/02/28 07:58:35;;;;;;;18.23;13.60;;;4.30;99.90;;;;;;5036164;28;20482;-57
2024/02/28 08:01:04;;;;;;;20.70;14.07;;;4.30;99.90;;;;;;5035208;28;20990;-58
2024/02/28 08:03:34;;;;;;;22.47;15.37;;;4.40;99.90;;;;;;5032144;28;20502;-58
2024/02/28 08:06:03;;;;;;;20.50;14.30;;;4.40;99.90;;;;;;5033229;28;20486;-59
2024/02/28 08:08:32;;;;;;;21.07;15.17;;;4.40;99.90;;;;;;5034886;28;20522;-59
2024/02/28 08:11:00;;;;;;;21.50;15.37;;;4.40;99.90;;;;;;5032293;28;20471;-58
2024/02/28 08:13:29;;;;;;;25.93;15.73;;;4.40;99.90;;;;;;5033079;28;20723;-58
2024/02/28 08:15:57;;;;;;;20.13;14.60;;;4.40;99.90;;;;;;5032841;28;21130;-58
2024/02/28 08:18:25;;;;;;;22.27;15.67;;;4.40;99.90;;;;;;5031971;28;20486;-59
2024/02/28 08:20:57;;;;;;;23.07;16.00;;;4.50;99.90;;;;;;5034698;28;20489;-58
2024/02/28 08:23:26;;;;;;;23.80;15.30;;;4.50;99.90;;;;;;5035771;28;20540;-59
2024/02/28 08:25:55;;;;;;;21.60;17.50;;;4.50;99.90;;;;;;5032956;28;20485;-59
2024/02/28 08:28:23;;;;;;;23.27;15.67;;;4.60;99.90;;;;;;5036200;28;20621;-58
2024/02/28 08:30:51;;;;;;;24.20;16.87;;;4.60;99.90;;;;;;5036715;28;20498;-59
2024/02/28 08:33:19;;;;;;;23.23;16.70;;;4.70;99.90;;;;;;5033295;28;20547;-58
2024/02/28 08:35:51;;;;;;;23.80;16.23;;;4.80;99.90;;;;;;5033844;28;20493;-58
2024/02/28 08:38:20;;;;;;;25.20;17.33;;;4.80;99.90;;;;;;5033419;28;21084;-61
2024/02/28 08:40:47;;;;;;;25.20;16.77;;;4.90;99.90;;;;;;5032869;28;20475;-57
2024/02/28 08:43:17;;;;;;;28.03;18.73;;;4.90;99.90;;;;;;5032509;28;20550;-58
2024/02/28 08:45:45;;;;;;;25.43;18.37;;;4.90;99.90;;;;;;5034882;28;20507;-58
2024/02/28 08:48:13;;;;;;;24.43;18.67;;;5.00;99.90;;;;;;5031691;28;20516;-58
2024/02/28 08:50:41;;;;;;;28.27;18.50;;;5.00;99.90;;;;;;5034381;28;21048;-58
2024/02/28 08:53:09;;;;;;;29.17;19.50;;;4.90;99.90;;;;;;5037353;28;20550;-59
2024/02/28 08:55:37;;;;;;;29.77;19.57;;;4.90;99.90;;;;;;5028421;28;20569;-59
2024/02/28 08:58:05;;;;;;;32.57;22.07;;;5.00;99.90;;;;;;5033752;28;20502;-58
2024/02/28 09:00:34;;;;;;;28.70;20.33;;;5.00;99.90;;;;;;5034131;28;20474;-59
2024/02/28 09:03:04;;;;;;;31.40;20.13;;;5.10;99.90;;;;;;5030111;28;20473;-59
2024/02/28 09:05:32;;;;;;;33.43;21.37;;;5.10;99.90;;;;;;5032013;28;20525;-59
2024/02/28 09:08:00;;;;;;;29.80;21.47;;;5.20;99.90;;;;;;5031954;28;20490;-59
2024/02/28 09:10:31;;;;;;;32.37;21.37;;;5.30;99.90;;;;;;5034163;28;20485;-58
2024/02/28 09:12:59;;;;;;;30.97;20.97;;;5.30;99.90;;;;;;5030788;28;20466;-57
2024/02/28 09:15:27;;;;;;;31.50;21.07;;;5.40;99.90;;;;;;5029785;28;20852;-59
2024/02/28 09:17:57;;;;;;;28.90;20.27;;;5.40;99.90;;;;;;5036459;28;20576;-59
2024/02/28 09:20:25;;;;;;;32.17;20.93;;;5.50;99.90;;;;;;5036190;28;20478;-59
2024/02/28 09:22:53;;;;;;;28.67;19.53;;;5.60;99.90;;;;;;5037210;28;21001;-59
2024/02/28 09:25:21;;;;;;;33.00;22.10;;;5.60;99.90;;;;;;5035125;28;20626;-59
2024/02/28 09:27:53;;;;;;;32.30;21.20;;;5.70;99.90;;;;;;5033859;28;20505;-58
2024/02/28 09:30:22;;;;;;;31.93;20.97;;;5.80;99.90;;;;;;5035980;28;20475;-58
2024/02/28 09:32:52;;;;;;;29.60;19.80;;;5.90;99.90;;;;;;5039005;28;20976;-59
2024/02/28 09:35:21;;;;;;;28.73;19.50;;;5.90;99.90;;;;;;5036851;28;20471;-58
2024/02/28 09:37:49;;;;;;;28.93;19.13;;;6.00;99.90;;;;;;5035963;28;20572;-59
2024/02/28 09:40:18;;;;;;;25.80;18.73;;;6.10;99.90;;;;;;5032425;28;20471;-58
2024/02/28 09:42:51;;;;;;;24.80;18.70;;;6.10;99.90;;;;;;5027050;28;20475;-59
2024/02/28 09:45:21;;;;;;;25.90;18.67;;;6.20;99.90;;;;;;5031196;28;20475;-58
2024/02/28 09:47:49;;;;;;;26.10;18.97;;;6.30;99.90;;;;;;5033087;28;20486;-58
2024/02/28 09:50:20;;;;;;;26.07;17.60;;;6.40;99.90;;;;;;5031960;28;20476;-59
2024/02/28 09:52:49;;;;;;;27.10;19.00;;;6.50;99.90;;;;;;5035622;28;20494;-59
2024/02/28 09:55:29;;;;;;;25.20;18.03;;;6.50;99.90;;;;;;5031922;28;20661;-58
2024/02/28 09:57:58;;;;;;;25.20;18.70;;;6.60;99.90;;;;;;5037574;28;20572;-59
2024/02/28 10:00:27;;;;;;;24.67;16.70;;;6.60;99.90;;;;;;5032603;28;20649;-59
2024/02/28 10:02:57;;;;;;;26.57;18.77;;;6.70;99.90;;;;;;5036264;28;20522;-59
2024/02/28 10:05:28;;;;;;;23.20;16.03;;;6.80;99.90;;;;;;5035093;28;20494;-59
2024/02/28 10:07:56;;;;;;;24.53;17.70;;;6.80;99.90;;;;;;5035721;28;20517;-59
2024/02/28 10:10:24;;;;;;;23.00;16.50;;;6.80;99.90;;;;;;5037506;28;20467;-59
2024/02/28 10:12:52;;;;;;;25.27;17.37;;;6.80;99.90;;;;;;5034323;28;20486;-59
2024/02/28 10:15:21;;;;;;;23.20;16.77;;;6.90;99.90;;;;;;5032146;28;20467;-58
2024/02/28 10:17:49;;;;;;;21.83;16.77;;;6.90;99.90;;;;;;5034484;28;20503;-59
2024/02/28 10:20:18;;;;;;;21.37;15.80;;;6.90;99.90;;;;;;5036285;28;20471;-59
2024/02/28 10:22:47;;;;;;;23.20;15.50;;;6.90;99.90;;;;;;5030946;28;20560;-59
2024/02/28 10:25:15;;;;;;;21.70;16.10;;;7.00;99.90;;;;;;5032078;28;21046;-58
2024/02/28 10:27:43;;;;;;;23.77;17.70;;;7.20;99.90;;;;;;5038292;28;20489;-59
2024/02/28 10:30:11;;;;;;;22.00;16.17;;;7.30;99.90;;;;;;5037448;28;20478;-59
2024/02/28 10:32:50;;;;;;;21.60;16.30;;;7.30;99.90;;;;;;5035313;28;20554;-59
2024/02/28 10:35:19;;;;;;;21.70;15.40;;;7.40;99.90;;;;;;5036069;28;20912;-58
2024/02/28 10:37:51;;;;;;;17.90;13.60;;;7.50;99.90;;;;;;5035506;28;20585;-59
2024/02/28 10:40:21;;;;;;;20.90;15.80;;;7.60;99.90;;;;;;5037782;28;20562;-59
2024/02/28 10:42:50;;;;;;;20.83;16.33;;;7.80;99.90;;;;;;5037030;28;20541;-58
2024/02/28 10:45:20;;;;;;;20.73;14.83;;;7.90;99.90;;;;;;5032885;28;20474;-59
2024/02/28 10:48:09;;;;;;;18.70;14.87;;;8.00;99.90;;;;;;5029909;28;20723;-58
2024/02/28 10:50:37;;;;;;;19.87;14.73;;;8.10;99.90;;;;;;5034940;28;20474;-59
2024/02/28 10:53:14;;;;;;;20.57;15.13;;;8.10;99.90;;;;;;5031836;28;20499;-59
2024/02/28 10:55:44;;;;;;;20.93;16.50;;;8.20;99.90;;;;;;5036310;28;21029;-59
2024/02/28 10:58:12;;;;;;;23.23;16.40;;;8.10;99.90;;;;;;5034760;28;20824;-59
2024/02/28 11:00:44;;;;;;;21.00;15.10;;;8.10;99.90;;;;;;5036108;28;20510;-59
2024/02/28 11:03:14;;;;;;;20.37;15.30;;;8.10;99.90;;;;;;5032513;28;20496;-58
2024/02/28 11:05:46;;;;;;;20.07;15.33;;;8.00;99.90;;;;;;5034404;28;20589;-58
2024/02/28 11:08:23;;;;;;;17.80;13.87;;;8.00;99.90;;;;;;5035781;28;20491;-58
2024/02/28 11:10:57;;;;;;;21.07;14.93;;;8.00;99.90;;;;;;5036435;28;20475;-59
2024/02/28 11:13:25;;;;;;;20.03;14.90;;;8.00;99.90;;;;;;5030803;28;20554;-58
2024/02/28 11:15:55;;;;;;;23.27;16.13;;;8.10;99.90;;;;;;5035381;28;20895;-59
2024/02/28 11:18:23;;;;;;;17.97;13.67;;;8.10;99.90;;;;;;5035191;28;20505;-59
2024/02/28 11:20:51;;;;;;;22.03;15.77;;;8.10;99.90;;;;;;5035510;28;20605;-59
2024/02/28 11:23:19;;;;;;;21.30;15.30;;;8.20;99.90;;;;;;5026495;28;20475;-59
2024/02/28 11:25:48;;;;;;;21.87;15.47;;;8.30;99.90;;;;;;5029388;28;20569;-59
2024/02/28 11:28:17;;;;;;;20.60;15.30;;;8.30;99.90;;;;;;5033931;28;20489;-59
2024/02/28 11:30:45;;;;;;;19.70;14.40;;;8.20;99.90;;;;;;5036426;28;20890;-59
2024/02/28 11:33:13;;;;;;;18.90;14.50;;;8.10;99.90;;;;;;5031352;28;20473;-58
2024/02/28 11:35:42;;;;;;;19.77;13.80;;;8.00;99.90;;;;;;5034620;28;20516;-59
2024/02/28 11:38:12;;;;;;;20.93;15.17;;;8.00;99.90;;;;;;5035636;28;20527;-60
2024/02/28 11:40:48;;;;;;;21.43;15.53;;;8.00;99.90;;;;;;5035666;28;20501;-58
2024/02/28 11:43:18;;;;;;;18.27;13.23;;;8.10;99.90;;;;;;5028836;28;20910;-59
2024/02/28 11:45:47;;;;;;;18.43;14.20;;;8.10;99.90;;;;;;5030784;28;21145;-59
2024/02/28 11:48:15;;;;;;;18.00;13.80;;;8.10;99.90;;;;;;5034079;28;20482;-59
2024/02/28 11:50:44;;;;;;;19.10;13.83;;;8.10;99.90;;;;;;5033305;28;20870;-59
2024/02/28 11:53:12;;;;;;;15.03;12.10;;;8.10;99.90;;;;;;5035491;28;21021;-59
2024/02/28 11:55:41;;;;;;;21.40;14.77;;;8.10;99.90;;;;;;5031369;28;20570;-58
2024/02/28 11:58:10;;;;;;;18.20;13.07;;;8.10;99.90;;;;;;5031679;28;20483;-58
2024/02/28 12:00:48;;;;;;;20.93;13.90;;;8.00;99.90;;;;;;5035334;28;20545;-59
2024/02/28 12:03:22;;;;;;;21.30;15.30;;;8.00;99.90;;;;;;5032498;28;20983;-58
2024/02/28 12:05:50;;;;;;;21.20;15.83;;;8.00;99.90;;;;;;5032364;28;20494;-60
2024/02/28 12:08:19;;;;;;;20.73;16.40;;;8.00;99.90;;;;;;5032634;28;21039;-59
2024/02/28 12:10:48;;;;;;;19.87;15.83;;;8.00;99.90;;;;;;5033591;28;21044;-59
2024/02/28 12:13:19;;;;;;;23.07;16.37;;;8.00;99.90;;;;;;5032611;28;20476;-59
2024/02/28 12:15:48;;;;;;;21.30;15.40;;;8.00;99.90;;;;;;5028367;28;20494;-59
2024/02/28 12:18:16;;;;;;;19.33;14.90;;;7.90;99.90;;;;;;5033694;28;20501;-59
2024/02/28 12:20:45;;;;;;;18.23;14.83;;;7.90;99.90;;;;;;5038484;28;20475;-59
2024/02/28 12:23:13;;;;;;;21.20;15.60;;;7.90;99.90;;;;;;5035351;28;20560;-59
2024/02/28 12:25:41;;;;;;;20.63;16.60;;;7.90;99.90;;;;;;5032120;28;20493;-59
2024/02/28 12:28:10;;;;;;;20.10;14.60;;;7.90;99.90;;;;;;5032869;28;20592;-59
2024/02/28 12:30:42;;;;;;;20.97;15.30;;;7.90;99.90;;;;;;5033000;28;20971;-58
2024/02/28 12:33:12;;;;;;;23.00;17.20;;;7.90;99.90;;;;;;5026616;28;20552;-59
2024/02/28 12:35:41;;;;;;;21.43;16.53;;;7.90;99.90;;;;;;5032852;28;20474;-58
2024/02/28 12:38:09;;;;;;;23.10;15.83;;;7.80;99.90;;;;;;5031285;28;20495;-58
2024/02/28 12:40:37;;;;;;;21.47;15.80;;;7.70;99.90;;;;;;5029600;28;20498;-59
2024/02/28 12:43:05;;;;;;;20.20;15.57;;;7.80;99.90;;;;;;5035301;28;20975;-59